sensor_id;sensor_type;location;lat;lon;timestamp;P1;durP1;ratioP1;P2;durP2;ratioP2
18322;SDS011;9287;49.456;11.064;2023-02-12T00:01:25;41.07;;;25.80;;
18322;SDS011;9287;49.456;11.064;2023-02-12T00:03:54;34.77;;;23.83;;
18322;SDS011;9287;49.456;11.064;2023-02-12T00:06:22;38.23;;;25.40;;
18322;SDS011;9287;49.456;11.064;2023-02-12T00:08:54;39.67;;;25.27;;
18322;SDS011;9287;49.456;11.064;2023-02-12T00:11:24;38.30;;;25.17;;
18322;SDS011;9287;49.456;11.064;2023-02-12T00:13:53;44.27;;;25.50;;
18322;SDS011;9287;49.456;11.064;2023-02-12T00:16:22;39.70;;;24.97;;
18322;SDS011;9287;49.456;11.064;2023-02-12T00:18:52;40.53;;;25.03;;
18322;SDS011;9287;49.456;11.064;2023-02-12T00:21:21;38.30;;;25.10;;
18322;SDS011;9287;49.456;11.064;2023-02-12T00:23:50;39.50;;;24.27;;
18322;SDS011;9287;49.456;11.064;2023-02-12T00:26:20;36.50;;;24.53;;
18322;SDS011;9287;49.456;11.064;2023-02-12T00:28:48;36.20;;;24.90;;
18322;SDS011;9287;49.456;11.064;2023-02-12T00:31:17;39.07;;;24.83;;
18322;SDS011;9287;49.456;11.064;2023-02-12T00:33:46;36.50;;;25.40;;
18322;SDS011;9287;49.456;11.064;2023-02-12T00:36:16;37.80;;;24.93;;
18322;SDS011;9287;49.456;11.064;2023-02-12T00:38:46;36.97;;;24.50;;
18322;SDS011;9287;49.456;11.064;2023-02-12T00:41:14;38.27;;;25.17;;
18322;SDS011;9287;49.456;11.064;2023-02-12T00:43:43;38.90;;;25.13;;
18322;SDS011;9287;49.456;11.064;2023-02-12T00:46:13;43.63;;;27.30;;
18322;SDS011;9287;49.456;11.064;2023-02-12T00:48:41;40.00;;;26.67;;
18322;SDS011;9287;49.456;11.064;2023-02-12T00:51:09;37.93;;;25.80;;
18322;SDS011;9287;49.456;11.064;2023-02-12T00:53:37;39.57;;;25.97;;
18322;SDS011;9287;49.456;11.064;2023-02-12T00:56:05;38.97;;;25.70;;
18322;SDS011;9287;49.456;11.064;2023-02-12T00:58:33;36.77;;;24.33;;
18322;SDS011;9287;49.456;11.064;2023-02-12T01:01:02;36.87;;;24.57;;
18322;SDS011;9287;49.456;11.064;2023-02-12T01:03:30;37.43;;;24.43;;
18322;SDS011;9287;49.456;11.064;2023-02-12T01:05:58;39.00;;;24.80;;
18322;SDS011;9287;49.456;11.064;2023-02-12T01:08:25;39.87;;;25.47;;
18322;SDS011;9287;49.456;11.064;2023-02-12T01:10:54;40.67;;;25.73;;
18322;SDS011;9287;49.456;11.064;2023-02-12T01:13:23;36.80;;;24.03;;
18322;SDS011;9287;49.456;11.064;2023-02-12T01:16:04;37.40;;;23.73;;
18322;SDS011;9287;49.456;11.064;2023-02-12T01:18:35;38.70;;;23.43;;
18322;SDS011;9287;49.456;11.064;2023-02-12T01:21:07;38.27;;;24.67;;
18322;SDS011;9287;49.456;11.064;2023-02-12T01:23:36;36.33;;;23.57;;
18322;SDS011;9287;49.456;11.064;2023-02-12T01:26:04;36.10;;;23.80;;
18322;SDS011;9287;49.456;11.064;2023-02-12T01:28:32;36.07;;;23.37;;
18322;SDS011;9287;49.456;11.064;2023-02-12T01:31:00;37.33;;;23.83;;
18322;SDS011;9287;49.456;11.064;2023-02-12T01:33:31;35.87;;;23.43;;
18322;SDS011;9287;49.456;11.064;2023-02-12T01:35:59;37.07;;;24.77;;
18322;SDS011;9287;49.456;11.064;2023-02-12T01:38:27;34.97;;;23.47;;
18322;SDS011;9287;49.456;11.064;2023-02-12T01:41:00;34.47;;;23.57;;
18322;SDS011;9287;49.456;11.064;2023-02-12T01:43:28;38.30;;;23.93;;
18322;SDS011;9287;49.456;11.064;2023-02-12T01:45:57;37.20;;;24.10;;
18322;SDS011;9287;49.456;11.064;2023-02-12T01:48:26;38.37;;;24.67;;
18322;SDS011;9287;49.456;11.064;2023-02-12T01:50:58;39.60;;;24.30;;
18322;SDS011;9287;49.456;11.064;2023-02-12T01:53:30;39.10;;;24.60;;
18322;SDS011;9287;49.456;11.064;2023-02-12T01:56:03;37.80;;;24.40;;
18322;SDS011;9287;49.456;11.064;2023-02-12T01:58:34;41.47;;;24.97;;
18322;SDS011;9287;49.456;11.064;2023-02-12T02:01:05;37.30;;;24.10;;
18322;SDS011;9287;49.456;11.064;2023-02-12T02:03:36;35.53;;;23.50;;
18322;SDS011;9287;49.456;11.064;2023-02-12T02:06:07;40.30;;;24.03;;
18322;SDS011;9287;49.456;11.064;2023-02-12T02:08:38;39.07;;;25.33;;
18322;SDS011;9287;49.456;11.064;2023-02-12T02:11:07;42.97;;;26.40;;
18322;SDS011;9287;49.456;11.064;2023-02-12T02:13:50;40.47;;;25.03;;
18322;SDS011;9287;49.456;11.064;2023-02-12T02:16:36;37.90;;;24.00;;
18322;SDS011;9287;49.456;11.064;2023-02-12T02:19:09;38.63;;;24.07;;
18322;SDS011;9287;49.456;11.064;2023-02-12T02:24:53;40.70;;;24.77;;
18322;SDS011;9287;49.456;11.064;2023-02-12T02:27:40;38.60;;;24.50;;
18322;SDS011;9287;49.456;11.064;2023-02-12T02:30:22;37.40;;;24.10;;
18322;SDS011;9287;49.456;11.064;2023-02-12T02:33:07;40.70;;;25.07;;
18322;SDS011;9287;49.456;11.064;2023-02-12T02:35:46;38.50;;;23.67;;
18322;SDS011;9287;49.456;11.064;2023-02-12T02:38:22;37.87;;;24.60;;
18322;SDS011;9287;49.456;11.064;2023-02-12T02:40:57;41.27;;;24.97;;
18322;SDS011;9287;49.456;11.064;2023-02-12T02:43:30;38.13;;;25.07;;
18322;SDS011;9287;49.456;11.064;2023-02-12T02:46:04;40.37;;;24.93;;
18322;SDS011;9287;49.456;11.064;2023-02-12T02:48:36;38.47;;;25.17;;
18322;SDS011;9287;49.456;11.064;2023-02-12T02:51:09;37.17;;;24.80;;
18322;SDS011;9287;49.456;11.064;2023-02-12T02:53:42;42.87;;;25.60;;
18322;SDS011;9287;49.456;11.064;2023-02-12T02:56:15;38.13;;;24.30;;
18322;SDS011;9287;49.456;11.064;2023-02-12T02:58:47;43.20;;;25.60;;
18322;SDS011;9287;49.456;11.064;2023-02-12T03:01:19;43.37;;;27.27;;
18322;SDS011;9287;49.456;11.064;2023-02-12T03:03:52;42.43;;;26.63;;
18322;SDS011;9287;49.456;11.064;2023-02-12T03:06:25;38.77;;;24.83;;
18322;SDS011;9287;49.456;11.064;2023-02-12T03:08:59;38.33;;;24.43;;
18322;SDS011;9287;49.456;11.064;2023-02-12T03:11:31;43.67;;;26.13;;
18322;SDS011;9287;49.456;11.064;2023-02-12T03:14:02;41.63;;;24.93;;
18322;SDS011;9287;49.456;11.064;2023-02-12T03:16:36;38.77;;;24.80;;
18322;SDS011;9287;49.456;11.064;2023-02-12T03:19:07;40.03;;;25.43;;
18322;SDS011;9287;49.456;11.064;2023-02-12T03:21:40;44.67;;;27.00;;
18322;SDS011;9287;49.456;11.064;2023-02-12T03:24:12;38.93;;;25.10;;
18322;SDS011;9287;49.456;11.064;2023-02-12T03:26:46;46.60;;;25.47;;
18322;SDS011;9287;49.456;11.064;2023-02-12T03:29:17;41.47;;;25.77;;
18322;SDS011;9287;49.456;11.064;2023-02-12T03:31:48;42.50;;;26.10;;
18322;SDS011;9287;49.456;11.064;2023-02-12T03:34:31;40.60;;;25.63;;
18322;SDS011;9287;49.456;11.064;2023-02-12T03:37:07;43.73;;;25.83;;
18322;SDS011;9287;49.456;11.064;2023-02-12T03:39:41;41.27;;;26.33;;
18322;SDS011;9287;49.456;11.064;2023-02-12T03:42:17;40.33;;;25.83;;
18322;SDS011;9287;49.456;11.064;2023-02-12T03:44:55;46.97;;;26.33;;
18322;SDS011;9287;49.456;11.064;2023-02-12T03:47:29;42.40;;;27.00;;
18322;SDS011;9287;49.456;11.064;2023-02-12T03:50:09;42.83;;;26.00;;
18322;SDS011;9287;49.456;11.064;2023-02-12T03:52:41;41.90;;;27.60;;
18322;SDS011;9287;49.456;11.064;2023-02-12T03:55:09;40.40;;;25.90;;
18322;SDS011;9287;49.456;11.064;2023-02-12T03:57:39;42.60;;;26.13;;
18322;SDS011;9287;49.456;11.064;2023-02-12T04:00:11;46.93;;;27.27;;
18322;SDS011;9287;49.456;11.064;2023-02-12T04:02:43;40.53;;;25.43;;
18322;SDS011;9287;49.456;11.064;2023-02-12T04:05:15;40.47;;;25.77;;
18322;SDS011;9287;49.456;11.064;2023-02-12T04:07:45;42.50;;;25.83;;
18322;SDS011;9287;49.456;11.064;2023-02-12T04:10:13;44.43;;;27.10;;
18322;SDS011;9287;49.456;11.064;2023-02-12T04:12:43;44.43;;;25.87;;
18322;SDS011;9287;49.456;11.064;2023-02-12T04:15:28;43.33;;;27.50;;
18322;SDS011;9287;49.456;11.064;2023-02-12T04:18:16;45.07;;;26.53;;
18322;SDS011;9287;49.456;11.064;2023-02-12T04:20:50;42.93;;;26.10;;
18322;SDS011;9287;49.456;11.064;2023-02-12T04:23:33;47.80;;;27.10;;
18322;SDS011;9287;49.456;11.064;2023-02-12T04:26:13;47.87;;;27.60;;
18322;SDS011;9287;49.456;11.064;2023-02-12T04:28:52;47.73;;;29.20;;
18322;SDS011;9287;49.456;11.064;2023-02-12T04:31:30;44.40;;;28.53;;
18322;SDS011;9287;49.456;11.064;2023-02-12T04:34:06;43.67;;;27.57;;
18322;SDS011;9287;49.456;11.064;2023-02-12T04:36:40;46.27;;;26.77;;
18322;SDS011;9287;49.456;11.064;2023-02-12T04:39:15;45.43;;;28.03;;
18322;SDS011;9287;49.456;11.064;2023-02-12T04:41:46;46.40;;;28.37;;
18322;SDS011;9287;49.456;11.064;2023-02-12T04:44:15;46.23;;;28.50;;
18322;SDS011;9287;49.456;11.064;2023-02-12T04:46:44;48.37;;;29.20;;
18322;SDS011;9287;49.456;11.064;2023-02-12T04:49:14;48.50;;;27.97;;
18322;SDS011;9287;49.456;11.064;2023-02-12T04:51:43;49.93;;;27.43;;
18322;SDS011;9287;49.456;11.064;2023-02-12T04:54:11;48.43;;;30.10;;
18322;SDS011;9287;49.456;11.064;2023-02-12T04:56:39;54.17;;;30.27;;
18322;SDS011;9287;49.456;11.064;2023-02-12T04:59:08;53.07;;;29.90;;
18322;SDS011;9287;49.456;11.064;2023-02-12T05:01:37;47.70;;;28.27;;
18322;SDS011;9287;49.456;11.064;2023-02-12T05:04:05;50.33;;;30.13;;
18322;SDS011;9287;49.456;11.064;2023-02-12T05:06:36;48.47;;;29.40;;
18322;SDS011;9287;49.456;11.064;2023-02-12T05:09:05;49.57;;;29.47;;
18322;SDS011;9287;49.456;11.064;2023-02-12T05:11:34;52.97;;;30.17;;
18322;SDS011;9287;49.456;11.064;2023-02-12T05:14:02;45.13;;;28.50;;
18322;SDS011;9287;49.456;11.064;2023-02-12T05:16:29;48.67;;;28.53;;
18322;SDS011;9287;49.456;11.064;2023-02-12T05:18:58;51.00;;;30.20;;
18322;SDS011;9287;49.456;11.064;2023-02-12T05:21:25;52.10;;;30.53;;
18322;SDS011;9287;49.456;11.064;2023-02-12T05:23:54;49.43;;;29.30;;
18322;SDS011;9287;49.456;11.064;2023-02-12T05:26:22;47.30;;;29.73;;
18322;SDS011;9287;49.456;11.064;2023-02-12T05:28:52;48.90;;;28.90;;
18322;SDS011;9287;49.456;11.064;2023-02-12T05:31:20;52.13;;;30.53;;
18322;SDS011;9287;49.456;11.064;2023-02-12T05:33:48;50.77;;;30.67;;
18322;SDS011;9287;49.456;11.064;2023-02-12T05:36:17;54.57;;;29.63;;
18322;SDS011;9287;49.456;11.064;2023-02-12T05:38:46;52.70;;;30.10;;
18322;SDS011;9287;49.456;11.064;2023-02-12T05:41:16;56.83;;;31.80;;
18322;SDS011;9287;49.456;11.064;2023-02-12T05:43:46;52.97;;;29.57;;
18322;SDS011;9287;49.456;11.064;2023-02-12T05:46:15;52.23;;;29.37;;
18322;SDS011;9287;49.456;11.064;2023-02-12T05:48:44;51.73;;;31.17;;
18322;SDS011;9287;49.456;11.064;2023-02-12T05:51:12;56.33;;;30.60;;
18322;SDS011;9287;49.456;11.064;2023-02-12T05:53:42;53.93;;;30.87;;
18322;SDS011;9287;49.456;11.064;2023-02-12T05:56:11;51.57;;;30.53;;
18322;SDS011;9287;49.456;11.064;2023-02-12T05:58:42;57.73;;;31.93;;
18322;SDS011;9287;49.456;11.064;2023-02-12T06:01:12;51.40;;;31.23;;
18322;SDS011;9287;49.456;11.064;2023-02-12T06:03:43;52.13;;;30.67;;
18322;SDS011;9287;49.456;11.064;2023-02-12T06:06:11;53.90;;;30.40;;
18322;SDS011;9287;49.456;11.064;2023-02-12T06:08:39;55.10;;;30.10;;
18322;SDS011;9287;49.456;11.064;2023-02-12T06:11:09;48.80;;;28.43;;
18322;SDS011;9287;49.456;11.064;2023-02-12T06:13:39;51.20;;;28.90;;
18322;SDS011;9287;49.456;11.064;2023-02-12T06:16:14;46.43;;;28.73;;
18322;SDS011;9287;49.456;11.064;2023-02-12T06:18:43;47.33;;;29.20;;
18322;SDS011;9287;49.456;11.064;2023-02-12T06:21:11;49.93;;;28.63;;
18322;SDS011;9287;49.456;11.064;2023-02-12T06:23:39;51.90;;;31.57;;
18322;SDS011;9287;49.456;11.064;2023-02-12T06:26:07;49.00;;;30.07;;
18322;SDS011;9287;49.456;11.064;2023-02-12T06:28:35;53.93;;;30.60;;
18322;SDS011;9287;49.456;11.064;2023-02-12T06:31:03;52.23;;;29.40;;
18322;SDS011;9287;49.456;11.064;2023-02-12T06:33:32;51.90;;;29.53;;
18322;SDS011;9287;49.456;11.064;2023-02-12T06:36:02;53.50;;;30.33;;
18322;SDS011;9287;49.456;11.064;2023-02-12T06:38:30;51.27;;;30.57;;
18322;SDS011;9287;49.456;11.064;2023-02-12T06:40:59;52.97;;;30.10;;
18322;SDS011;9287;49.456;11.064;2023-02-12T06:43:28;50.00;;;29.80;;
18322;SDS011;9287;49.456;11.064;2023-02-12T06:45:59;51.37;;;30.40;;
18322;SDS011;9287;49.456;11.064;2023-02-12T06:48:28;53.93;;;32.30;;
18322;SDS011;9287;49.456;11.064;2023-02-12T06:51:03;53.83;;;30.33;;
18322;SDS011;9287;49.456;11.064;2023-02-12T06:53:32;60.90;;;32.60;;
18322;SDS011;9287;49.456;11.064;2023-02-12T06:56:01;57.27;;;32.33;;
18322;SDS011;9287;49.456;11.064;2023-02-12T06:58:30;56.10;;;31.77;;
18322;SDS011;9287;49.456;11.064;2023-02-12T07:01:06;58.37;;;32.10;;
18322;SDS011;9287;49.456;11.064;2023-02-12T07:03:36;54.73;;;32.27;;
18322;SDS011;9287;49.456;11.064;2023-02-12T07:06:06;53.97;;;31.83;;
18322;SDS011;9287;49.456;11.064;2023-02-12T07:08:34;52.53;;;30.97;;
18322;SDS011;9287;49.456;11.064;2023-02-12T07:11:03;53.03;;;31.20;;
18322;SDS011;9287;49.456;11.064;2023-02-12T07:13:31;50.57;;;31.20;;
18322;SDS011;9287;49.456;11.064;2023-02-12T07:16:04;51.70;;;32.50;;
18322;SDS011;9287;49.456;11.064;2023-02-12T07:18:33;54.07;;;32.90;;
18322;SDS011;9287;49.456;11.064;2023-02-12T07:21:01;53.23;;;33.17;;
18322;SDS011;9287;49.456;11.064;2023-02-12T07:23:30;49.03;;;30.90;;
18322;SDS011;9287;49.456;11.064;2023-02-12T07:25:59;53.07;;;31.93;;
18322;SDS011;9287;49.456;11.064;2023-02-12T07:28:28;50.77;;;31.07;;
18322;SDS011;9287;49.456;11.064;2023-02-12T07:30:59;45.63;;;30.13;;
18322;SDS011;9287;49.456;11.064;2023-02-12T07:33:27;53.00;;;31.43;;
18322;SDS011;9287;49.456;11.064;2023-02-12T07:35:54;47.60;;;29.70;;
18322;SDS011;9287;49.456;11.064;2023-02-12T07:38:27;55.97;;;31.43;;
18322;SDS011;9287;49.456;11.064;2023-02-12T07:41:04;50.70;;;31.80;;
18322;SDS011;9287;49.456;11.064;2023-02-12T07:43:35;53.73;;;31.30;;
18322;SDS011;9287;49.456;11.064;2023-02-12T07:46:07;51.03;;;30.97;;
18322;SDS011;9287;49.456;11.064;2023-02-12T07:48:36;48.57;;;29.37;;
18322;SDS011;9287;49.456;11.064;2023-02-12T07:51:05;50.77;;;30.50;;
18322;SDS011;9287;49.456;11.064;2023-02-12T07:53:34;49.53;;;29.80;;
18322;SDS011;9287;49.456;11.064;2023-02-12T07:56:10;51.37;;;32.07;;
18322;SDS011;9287;49.456;11.064;2023-02-12T07:58:40;57.00;;;31.70;;
18322;SDS011;9287;49.456;11.064;2023-02-12T08:01:10;51.33;;;31.37;;
18322;SDS011;9287;49.456;11.064;2023-02-12T08:03:40;50.67;;;31.20;;
18322;SDS011;9287;49.456;11.064;2023-02-12T08:06:08;54.47;;;32.53;;
18322;SDS011;9287;49.456;11.064;2023-02-12T08:08:36;50.77;;;30.70;;
18322;SDS011;9287;49.456;11.064;2023-02-12T08:11:04;50.83;;;30.93;;
18322;SDS011;9287;49.456;11.064;2023-02-12T08:13:34;59.23;;;32.33;;
18322;SDS011;9287;49.456;11.064;2023-02-12T08:16:04;55.23;;;31.87;;
18322;SDS011;9287;49.456;11.064;2023-02-12T08:18:33;49.93;;;30.33;;
18322;SDS011;9287;49.456;11.064;2023-02-12T08:21:02;48.83;;;30.43;;
18322;SDS011;9287;49.456;11.064;2023-02-12T08:23:31;44.60;;;29.10;;
18322;SDS011;9287;49.456;11.064;2023-02-12T08:26:08;56.07;;;32.00;;
18322;SDS011;9287;49.456;11.064;2023-02-12T08:28:40;49.27;;;30.40;;
18322;SDS011;9287;49.456;11.064;2023-02-12T08:31:10;51.83;;;30.87;;
18322;SDS011;9287;49.456;11.064;2023-02-12T08:33:40;50.17;;;30.53;;
18322;SDS011;9287;49.456;11.064;2023-02-12T08:36:08;55.77;;;29.70;;
18322;SDS011;9287;49.456;11.064;2023-02-12T08:38:37;48.90;;;29.03;;
18322;SDS011;9287;49.456;11.064;2023-02-12T08:41:06;49.90;;;29.20;;
18322;SDS011;9287;49.456;11.064;2023-02-12T08:43:36;49.40;;;27.93;;
18322;SDS011;9287;49.456;11.064;2023-02-12T08:46:07;48.30;;;28.10;;
18322;SDS011;9287;49.456;11.064;2023-02-12T08:48:36;49.57;;;29.43;;
18322;SDS011;9287;49.456;11.064;2023-02-12T08:51:05;47.33;;;28.60;;
18322;SDS011;9287;49.456;11.064;2023-02-12T08:53:34;47.23;;;28.73;;
18322;SDS011;9287;49.456;11.064;2023-02-12T08:56:02;55.03;;;29.83;;
18322;SDS011;9287;49.456;11.064;2023-02-12T08:58:31;47.50;;;29.07;;
18322;SDS011;9287;49.456;11.064;2023-02-12T09:00:59;51.77;;;30.03;;
18322;SDS011;9287;49.456;11.064;2023-02-12T09:03:29;53.77;;;29.40;;
18322;SDS011;9287;49.456;11.064;2023-02-12T09:05:57;54.27;;;29.23;;
18322;SDS011;9287;49.456;11.064;2023-02-12T09:08:28;52.53;;;29.37;;
18322;SDS011;9287;49.456;11.064;2023-02-12T09:10:56;52.20;;;28.50;;
18322;SDS011;9287;49.456;11.064;2023-02-12T09:13:24;52.40;;;29.50;;
18322;SDS011;9287;49.456;11.064;2023-02-12T09:15:52;52.17;;;27.93;;
18322;SDS011;9287;49.456;11.064;2023-02-12T09:18:20;48.67;;;26.80;;
18322;SDS011;9287;49.456;11.064;2023-02-12T09:20:49;50.17;;;29.37;;
18322;SDS011;9287;49.456;11.064;2023-02-12T09:23:16;45.37;;;27.17;;
18322;SDS011;9287;49.456;11.064;2023-02-12T09:25:44;45.03;;;26.80;;
18322;SDS011;9287;49.456;11.064;2023-02-12T09:28:13;50.93;;;28.07;;
18322;SDS011;9287;49.456;11.064;2023-02-12T09:30:41;47.50;;;26.67;;
18322;SDS011;9287;49.456;11.064;2023-02-12T09:33:09;50.83;;;27.67;;
18322;SDS011;9287;49.456;11.064;2023-02-12T09:35:38;48.63;;;28.67;;
18322;SDS011;9287;49.456;11.064;2023-02-12T09:38:07;47.77;;;27.73;;
18322;SDS011;9287;49.456;11.064;2023-02-12T09:40:36;49.30;;;28.03;;
18322;SDS011;9287;49.456;11.064;2023-02-12T09:43:16;47.70;;;26.73;;
18322;SDS011;9287;49.456;11.064;2023-02-12T09:45:50;51.00;;;28.43;;
18322;SDS011;9287;49.456;11.064;2023-02-12T09:48:30;52.67;;;29.40;;
18322;SDS011;9287;49.456;11.064;2023-02-12T09:51:06;52.37;;;29.13;;
18322;SDS011;9287;49.456;11.064;2023-02-12T09:53:37;46.77;;;26.73;;
18322;SDS011;9287;49.456;11.064;2023-02-12T09:56:10;49.80;;;27.60;;
18322;SDS011;9287;49.456;11.064;2023-02-12T09:58:41;43.30;;;26.03;;
18322;SDS011;9287;49.456;11.064;2023-02-12T10:01:13;44.17;;;25.57;;
18322;SDS011;9287;49.456;11.064;2023-02-12T10:03:43;44.90;;;23.87;;
18322;SDS011;9287;49.456;11.064;2023-02-12T10:06:13;40.57;;;23.53;;
18322;SDS011;9287;49.456;11.064;2023-02-12T10:08:49;38.73;;;22.00;;
18322;SDS011;9287;49.456;11.064;2023-02-12T10:11:39;34.27;;;20.47;;
18322;SDS011;9287;49.456;11.064;2023-02-12T10:14:28;36.77;;;22.00;;
18322;SDS011;9287;49.456;11.064;2023-02-12T10:17:12;31.30;;;17.93;;
18322;SDS011;9287;49.456;11.064;2023-02-12T10:19:52;25.67;;;15.10;;
18322;SDS011;9287;49.456;11.064;2023-02-12T10:22:43;28.67;;;17.27;;
18322;SDS011;9287;49.456;11.064;2023-02-12T10:25:25;38.27;;;20.53;;
18322;SDS011;9287;49.456;11.064;2023-02-12T10:27:58;30.70;;;18.10;;
18322;SDS011;9287;49.456;11.064;2023-02-12T10:30:30;25.67;;;14.70;;
18322;SDS011;9287;49.456;11.064;2023-02-12T10:33:10;30.20;;;17.17;;
18322;SDS011;9287;49.456;11.064;2023-02-12T10:35:43;31.80;;;18.47;;
18322;SDS011;9287;49.456;11.064;2023-02-12T10:38:16;27.30;;;16.57;;
18322;SDS011;9287;49.456;11.064;2023-02-12T10:40:49;30.23;;;16.70;;
18322;SDS011;9287;49.456;11.064;2023-02-12T10:43:16;32.10;;;17.27;;
18322;SDS011;9287;49.456;11.064;2023-02-12T10:45:44;41.23;;;20.70;;
18322;SDS011;9287;49.456;11.064;2023-02-12T10:48:13;36.50;;;20.57;;
18322;SDS011;9287;49.456;11.064;2023-02-12T10:50:51;34.63;;;18.97;;
18322;SDS011;9287;49.456;11.064;2023-02-12T10:53:28;38.93;;;19.73;;
18322;SDS011;9287;49.456;11.064;2023-02-12T10:58:51;35.37;;;20.20;;
18322;SDS011;9287;49.456;11.064;2023-02-12T11:01:22;35.03;;;18.90;;
18322;SDS011;9287;49.456;11.064;2023-02-12T11:03:53;34.43;;;18.87;;
18322;SDS011;9287;49.456;11.064;2023-02-12T11:06:21;34.30;;;18.73;;
18322;SDS011;9287;49.456;11.064;2023-02-12T11:08:51;33.77;;;18.60;;
18322;SDS011;9287;49.456;11.064;2023-02-12T11:11:19;29.23;;;17.77;;
18322;SDS011;9287;49.456;11.064;2023-02-12T11:13:55;31.33;;;17.77;;
18322;SDS011;9287;49.456;11.064;2023-02-12T11:16:25;32.07;;;17.00;;
18322;SDS011;9287;49.456;11.064;2023-02-12T11:18:59;31.73;;;17.33;;
18322;SDS011;9287;49.456;11.064;2023-02-12T11:21:30;29.40;;;16.50;;
18322;SDS011;9287;49.456;11.064;2023-02-12T11:26:49;27.03;;;15.70;;
18322;SDS011;9287;49.456;11.064;2023-02-12T11:29:17;28.47;;;15.90;;
18322;SDS011;9287;49.456;11.064;2023-02-12T11:31:58;30.03;;;16.13;;
18322;SDS011;9287;49.456;11.064;2023-02-12T11:34:27;25.57;;;15.80;;
18322;SDS011;9287;49.456;11.064;2023-02-12T11:36:55;31.20;;;15.80;;
18322;SDS011;9287;49.456;11.064;2023-02-12T11:39:25;31.30;;;16.63;;
18322;SDS011;9287;49.456;11.064;2023-02-12T11:41:59;28.53;;;16.23;;
18322;SDS011;9287;49.456;11.064;2023-02-12T11:44:31;33.93;;;18.60;;
18322;SDS011;9287;49.456;11.064;2023-02-12T11:47:02;32.37;;;17.27;;
18322;SDS011;9287;49.456;11.064;2023-02-12T11:49:36;30.20;;;16.50;;
18322;SDS011;9287;49.456;11.064;2023-02-12T11:52:13;32.83;;;17.50;;
18322;SDS011;9287;49.456;11.064;2023-02-12T11:54:47;30.83;;;17.57;;
18322;SDS011;9287;49.456;11.064;2023-02-12T11:57:38;31.53;;;17.07;;
18322;SDS011;9287;49.456;11.064;2023-02-12T12:00:13;28.97;;;16.83;;
18322;SDS011;9287;49.456;11.064;2023-02-12T12:02:44;34.00;;;18.83;;
18322;SDS011;9287;49.456;11.064;2023-02-12T12:05:17;32.13;;;19.33;;
18322;SDS011;9287;49.456;11.064;2023-02-12T12:07:48;34.23;;;18.80;;
18322;SDS011;9287;49.456;11.064;2023-02-12T12:10:20;36.50;;;19.07;;
18322;SDS011;9287;49.456;11.064;2023-02-12T12:12:57;35.67;;;19.17;;
18322;SDS011;9287;49.456;11.064;2023-02-12T12:15:31;34.87;;;17.57;;
18322;SDS011;9287;49.456;11.064;2023-02-12T12:18:22;31.50;;;19.37;;
18322;SDS011;9287;49.456;11.064;2023-02-12T12:21:11;35.90;;;19.37;;
18322;SDS011;9287;49.456;11.064;2023-02-12T12:23:48;31.80;;;19.23;;
18322;SDS011;9287;49.456;11.064;2023-02-12T12:26:19;33.87;;;19.87;;
18322;SDS011;9287;49.456;11.064;2023-02-12T12:28:53;35.30;;;19.20;;
18322;SDS011;9287;49.456;11.064;2023-02-12T12:31:29;33.83;;;18.17;;
18322;SDS011;9287;49.456;11.064;2023-02-12T12:34:02;34.03;;;18.13;;
18322;SDS011;9287;49.456;11.064;2023-02-12T12:39:33;33.23;;;17.73;;
18322;SDS011;9287;49.456;11.064;2023-02-12T12:42:13;34.83;;;19.13;;
18322;SDS011;9287;49.456;11.064;2023-02-12T12:45:04;30.33;;;18.10;;
18322;SDS011;9287;49.456;11.064;2023-02-12T12:47:47;31.23;;;18.30;;
18322;SDS011;9287;49.456;11.064;2023-02-12T12:50:27;33.30;;;19.47;;
18322;SDS011;9287;49.456;11.064;2023-02-12T12:53:13;36.00;;;19.17;;
18322;SDS011;9287;49.456;11.064;2023-02-12T12:55:56;35.07;;;20.13;;
18322;SDS011;9287;49.456;11.064;2023-02-12T12:58:34;35.33;;;19.50;;
18322;SDS011;9287;49.456;11.064;2023-02-12T13:01:21;35.50;;;20.30;;
18322;SDS011;9287;49.456;11.064;2023-02-12T13:04:29;36.53;;;20.93;;
18322;SDS011;9287;49.456;11.064;2023-02-12T13:10:12;36.30;;;20.50;;
18322;SDS011;9287;49.456;11.064;2023-02-12T13:12:59;34.07;;;20.87;;
18322;SDS011;9287;49.456;11.064;2023-02-12T13:15:40;34.13;;;20.17;;
18322;SDS011;9287;49.456;11.064;2023-02-12T13:18:18;35.13;;;19.93;;
18322;SDS011;9287;49.456;11.064;2023-02-12T13:20:55;35.77;;;20.93;;
18322;SDS011;9287;49.456;11.064;2023-02-12T13:23:31;32.23;;;20.17;;
18322;SDS011;9287;49.456;11.064;2023-02-12T13:26:08;35.53;;;20.23;;
18322;SDS011;9287;49.456;11.064;2023-02-12T13:28:42;32.93;;;19.93;;
18322;SDS011;9287;49.456;11.064;2023-02-12T13:31:16;33.10;;;20.37;;
18322;SDS011;9287;49.456;11.064;2023-02-12T13:34:04;33.23;;;19.93;;
18322;SDS011;9287;49.456;11.064;2023-02-12T13:36:36;32.93;;;19.57;;
18322;SDS011;9287;49.456;11.064;2023-02-12T13:39:06;34.10;;;21.10;;
18322;SDS011;9287;49.456;11.064;2023-02-12T13:41:43;33.03;;;19.70;;
18322;SDS011;9287;49.456;11.064;2023-02-12T13:44:18;34.33;;;21.33;;
18322;SDS011;9287;49.456;11.064;2023-02-12T13:46:58;35.63;;;19.70;;
18322;SDS011;9287;49.456;11.064;2023-02-12T13:49:38;31.33;;;19.73;;
18322;SDS011;9287;49.456;11.064;2023-02-12T13:52:16;34.83;;;20.17;;
18322;SDS011;9287;49.456;11.064;2023-02-12T13:55:02;31.20;;;19.07;;
18322;SDS011;9287;49.456;11.064;2023-02-12T13:57:46;33.67;;;20.57;;
18322;SDS011;9287;49.456;11.064;2023-02-12T14:03:23;34.10;;;19.90;;
18322;SDS011;9287;49.456;11.064;2023-02-12T14:08:39;31.90;;;20.07;;
18322;SDS011;9287;49.456;11.064;2023-02-12T14:11:08;33.77;;;19.83;;
18322;SDS011;9287;49.456;11.064;2023-02-12T14:13:50;32.27;;;20.40;;
18322;SDS011;9287;49.456;11.064;2023-02-12T14:16:34;36.43;;;20.97;;
18322;SDS011;9287;49.456;11.064;2023-02-12T14:22:11;36.87;;;21.50;;
18322;SDS011;9287;49.456;11.064;2023-02-12T14:27:34;34.43;;;20.87;;
18322;SDS011;9287;49.456;11.064;2023-02-12T14:39:25;39.07;;;22.53;;
18322;SDS011;9287;49.456;11.064;2023-02-12T14:41:55;37.90;;;21.23;;
18322;SDS011;9287;49.456;11.064;2023-02-12T14:45:00;40.33;;;23.20;;
18322;SDS011;9287;49.456;11.064;2023-02-12T14:52:53;36.80;;;21.87;;
18322;SDS011;9287;49.456;11.064;2023-02-12T14:55:28;37.57;;;21.37;;
18322;SDS011;9287;49.456;11.064;2023-02-12T14:58:00;36.33;;;21.83;;
18322;SDS011;9287;49.456;11.064;2023-02-12T15:00:33;34.87;;;21.57;;
18322;SDS011;9287;49.456;11.064;2023-02-12T15:03:19;37.37;;;21.67;;
18322;SDS011;9287;49.456;11.064;2023-02-12T15:05:54;33.87;;;21.20;;
18322;SDS011;9287;49.456;11.064;2023-02-12T15:08:28;36.83;;;21.63;;
18322;SDS011;9287;49.456;11.064;2023-02-12T15:11:05;32.37;;;20.60;;
18322;SDS011;9287;49.456;11.064;2023-02-12T15:13:46;32.53;;;19.80;;
18322;SDS011;9287;49.456;11.064;2023-02-12T15:16:21;32.93;;;20.50;;
18322;SDS011;9287;49.456;11.064;2023-02-12T15:18:57;34.53;;;20.90;;
18322;SDS011;9287;49.456;11.064;2023-02-12T15:21:30;35.10;;;21.30;;
18322;SDS011;9287;49.456;11.064;2023-02-12T15:24:00;34.10;;;20.23;;
18322;SDS011;9287;49.456;11.064;2023-02-12T15:26:35;33.57;;;20.80;;
18322;SDS011;9287;49.456;11.064;2023-02-12T15:29:14;34.20;;;21.30;;
18322;SDS011;9287;49.456;11.064;2023-02-12T15:31:49;34.30;;;20.73;;
18322;SDS011;9287;49.456;11.064;2023-02-12T15:34:19;36.13;;;21.60;;